sensor_id;sensor_type;location;lat;lon;timestamp;temperature;humidity
1461;DHT22;724;49.910;12.530;2023-03-12T00:01:37;-6.00;1.00
1461;DHT22;724;49.910;12.530;2023-03-12T00:04:05;-6.00;1.00
1461;DHT22;724;49.910;12.530;2023-03-12T00:06:33;-6.00;1.00
1461;DHT22;724;49.910;12.530;2023-03-12T00:08:59;-6.10;1.00
1461;DHT22;724;49.910;12.530;2023-03-12T00:11:27;-6.00;1.00
1461;DHT22;724;49.910;12.530;2023-03-12T00:13:55;-6.10;1.00
1461;DHT22;724;49.910;12.530;2023-03-12T00:16:23;-6.10;1.00
1461;DHT22;724;49.910;12.530;2023-03-12T00:18:51;-6.00;1.00
1461;DHT22;724;49.910;12.530;2023-03-12T00:21:19;-5.90;1.00
1461;DHT22;724;49.910;12.530;2023-03-12T00:23:48;-5.80;61.00
1461;DHT22;724;49.910;12.530;2023-03-12T00:26:16;-5.80;99.90
1461;DHT22;724;49.910;12.530;2023-03-12T00:28:43;-5.80;99.90
1461;DHT22;724;49.910;12.530;2023-03-12T00:31:14;-5.80;99.90
1461;DHT22;724;49.910;12.530;2023-03-12T00:33:41;-5.80;99.90
1461;DHT22;724;49.910;12.530;2023-03-12T00:36:08;-5.80;99.90
1461;DHT22;724;49.910;12.530;2023-03-12T00:38:35;-5.90;99.90
1461;DHT22;724;49.910;12.530;2023-03-12T00:41:03;-5.90;99.90
1461;DHT22;724;49.910;12.530;2023-03-12T00:43:30;-6.10;99.90
1461;DHT22;724;49.910;12.530;2023-03-12T00:45:57;-6.00;99.90
1461;DHT22;724;49.910;12.530;2023-03-12T00:48:23;-6.00;99.90
1461;DHT22;724;49.910;12.530;2023-03-12T00:50:50;-6.00;1.00
1461;DHT22;724;49.910;12.530;2023-03-12T00:53:17;-5.90;1.00
1461;DHT22;724;49.910;12.530;2023-03-12T00:55:44;-5.80;1.00
1461;DHT22;724;49.910;12.530;2023-03-12T00:58:12;-5.80;1.00
1461;DHT22;724;49.910;12.530;2023-03-12T01:00:39;-5.80;1.00
1461;DHT22;724;49.910;12.530;2023-03-12T01:03:05;-5.80;1.00
1461;DHT22;724;49.910;12.530;2023-03-12T01:05:32;-5.80;1.00
1461;DHT22;724;49.910;12.530;2023-03-12T01:08:02;-5.80;1.00
1461;DHT22;724;49.910;12.530;2023-03-12T01:10:29;-5.80;1.00
1461;DHT22;724;49.910;12.530;2023-03-12T01:12:56;-5.90;1.00
1461;DHT22;724;49.910;12.530;2023-03-12T01:15:24;-5.90;1.00
1461;DHT22;724;49.910;12.530;2023-03-12T01:17:51;-5.90;1.00
1461;DHT22;724;49.910;12.530;2023-03-12T01:20:18;-5.80;1.00
1461;DHT22;724;49.910;12.530;2023-03-12T01:22:45;-5.90;1.00
1461;DHT22;724;49.910;12.530;2023-03-12T01:25:12;-5.90;1.00
1461;DHT22;724;49.910;12.530;2023-03-12T01:27:38;-5.90;1.00
1461;DHT22;724;49.910;12.530;2023-03-12T01:30:06;-5.90;1.00
1461;DHT22;724;49.910;12.530;2023-03-12T01:32:34;-5.90;1.00
1461;DHT22;724;49.910;12.530;2023-03-12T01:35:01;-6.00;1.00
1461;DHT22;724;49.910;12.530;2023-03-12T01:37:28;-6.00;1.00
1461;DHT22;724;49.910;12.530;2023-03-12T01:39:55;-6.00;1.00
1461;DHT22;724;49.910;12.530;2023-03-12T01:42:22;-6.00;1.00
1461;DHT22;724;49.910;12.530;2023-03-12T01:44:53;-6.00;1.00
1461;DHT22;724;49.910;12.530;2023-03-12T01:47:20;-6.00;1.00
1461;DHT22;724;49.910;12.530;2023-03-12T01:49:49;-6.10;1.00
1461;DHT22;724;49.910;12.530;2023-03-12T01:52:20;-6.10;1.00
1461;DHT22;724;49.910;12.530;2023-03-12T01:54:51;-6.00;1.00
1461;DHT22;724;49.910;12.530;2023-03-12T01:57:21;-6.00;1.00
1461;DHT22;724;49.910;12.530;2023-03-12T01:59:52;-6.10;1.00
1461;DHT22;724;49.910;12.530;2023-03-12T02:02:19;-6.10;1.00
1461;DHT22;724;49.910;12.530;2023-03-12T02:04:59;-6.20;1.00
1461;DHT22;724;49.910;12.530;2023-03-12T02:07:28;-6.20;1.00
1461;DHT22;724;49.910;12.530;2023-03-12T02:09:56;-6.20;41.60
1461;DHT22;724;49.910;12.530;2023-03-12T02:12:22;-6.20;81.40
1461;DHT22;724;49.910;12.530;2023-03-12T02:14:49;-6.20;64.40
1461;DHT22;724;49.910;12.530;2023-03-12T02:17:16;-6.20;71.20
1461;DHT22;724;49.910;12.530;2023-03-12T02:19:50;-6.20;98.80
1461;DHT22;724;49.910;12.530;2023-03-12T02:22:22;-6.20;99.90
1461;DHT22;724;49.910;12.530;2023-03-12T02:24:53;-6.30;99.90
1461;DHT22;724;49.910;12.530;2023-03-12T02:27:24;-6.30;99.90
1461;DHT22;724;49.910;12.530;2023-03-12T02:29:50;-6.50;99.90
1461;DHT22;724;49.910;12.530;2023-03-12T02:32:22;-6.50;99.90
1461;DHT22;724;49.910;12.530;2023-03-12T02:34:49;-6.50;99.90
1461;DHT22;724;49.910;12.530;2023-03-12T02:37:17;-6.50;99.90
1461;DHT22;724;49.910;12.530;2023-03-12T02:39:48;-6.50;99.90
1461;DHT22;724;49.910;12.530;2023-03-12T02:42:17;-6.40;99.90
1461;DHT22;724;49.910;12.530;2023-03-12T02:44:45;-6.40;99.90
1461;DHT22;724;49.910;12.530;2023-03-12T02:47:12;-6.50;99.90
1461;DHT22;724;49.910;12.530;2023-03-12T02:49:39;-6.40;81.50
1461;DHT22;724;49.910;12.530;2023-03-12T02:52:05;-6.60;1.00
1461;DHT22;724;49.910;12.530;2023-03-12T02:54:32;-6.60;1.00
1461;DHT22;724;49.910;12.530;2023-03-12T02:56:59;-6.60;1.00
1461;DHT22;724;49.910;12.530;2023-03-12T02:59:27;-6.70;1.00
1461;DHT22;724;49.910;12.530;2023-03-12T03:01:57;-6.70;1.00
1461;DHT22;724;49.910;12.530;2023-03-12T03:04:24;-6.70;1.00
1461;DHT22;724;49.910;12.530;2023-03-12T03:06:52;-6.70;1.00
1461;DHT22;724;49.910;12.530;2023-03-12T03:09:19;-6.70;1.00
1461;DHT22;724;49.910;12.530;2023-03-12T03:11:47;-6.70;1.00
1461;DHT22;724;49.910;12.530;2023-03-12T03:14:13;-6.70;1.00
1461;DHT22;724;49.910;12.530;2023-03-12T03:16:40;-6.70;1.00
1461;DHT22;724;49.910;12.530;2023-03-12T03:19:08;-6.80;1.00
1461;DHT22;724;49.910;12.530;2023-03-12T03:21:36;-6.70;1.00
1461;DHT22;724;49.910;12.530;2023-03-12T03:24:03;-6.70;1.00
1461;DHT22;724;49.910;12.530;2023-03-12T03:26:30;-6.70;1.00
1461;DHT22;724;49.910;12.530;2023-03-12T03:28:57;-6.70;1.00
1461;DHT22;724;49.910;12.530;2023-03-12T03:31:24;-6.80;1.00
1461;DHT22;724;49.910;12.530;2023-03-12T03:33:51;-6.80;1.00
1461;DHT22;724;49.910;12.530;2023-03-12T03:36:19;-6.80;1.00
1461;DHT22;724;49.910;12.530;2023-03-12T03:38:47;-6.70;1.00
1461;DHT22;724;49.910;12.530;2023-03-12T03:41:15;-6.70;1.00
1461;DHT22;724;49.910;12.530;2023-03-12T03:43:42;-6.70;1.00
1461;DHT22;724;49.910;12.530;2023-03-12T03:46:10;-6.90;1.00
1461;DHT22;724;49.910;12.530;2023-03-12T03:48:36;-6.90;1.00
1461;DHT22;724;49.910;12.530;2023-03-12T03:51:05;-6.90;1.00
1461;DHT22;724;49.910;12.530;2023-03-12T03:53:34;-6.80;99.90
1461;DHT22;724;49.910;12.530;2023-03-12T03:56:05;-6.80;99.90
1461;DHT22;724;49.910;12.530;2023-03-12T03:58:32;-6.80;99.90
1461;DHT22;724;49.910;12.530;2023-03-12T04:00:59;-6.80;99.90
1461;DHT22;724;49.910;12.530;2023-03-12T04:03:25;-6.80;99.90
1461;DHT22;724;49.910;12.530;2023-03-12T04:05:59;-6.80;99.90
1461;DHT22;724;49.910;12.530;2023-03-12T04:08:26;-6.80;99.90
1461;DHT22;724;49.910;12.530;2023-03-12T04:10:54;-6.80;99.90
1461;DHT22;724;49.910;12.530;2023-03-12T04:13:21;-6.80;99.90
1461;DHT22;724;49.910;12.530;2023-03-12T04:15:50;-6.80;99.90
1461;DHT22;724;49.910;12.530;2023-03-12T04:18:17;-6.70;99.90
1461;DHT22;724;49.910;12.530;2023-03-12T04:20:44;-6.70;99.90
1461;DHT22;724;49.910;12.530;2023-03-12T04:23:11;-6.70;99.90
1461;DHT22;724;49.910;12.530;2023-03-12T04:25:38;-6.70;99.90
1461;DHT22;724;49.910;12.530;2023-03-12T04:28:06;-6.70;99.90
1461;DHT22;724;49.910;12.530;2023-03-12T04:30:33;-6.60;99.90
1461;DHT22;724;49.910;12.530;2023-03-12T04:33:02;-6.60;99.90
1461;DHT22;724;49.910;12.530;2023-03-12T04:35:29;-6.50;99.90
1461;DHT22;724;49.910;12.530;2023-03-12T04:37:56;-6.40;99.90
1461;DHT22;724;49.910;12.530;2023-03-12T04:40:22;-6.30;99.90
1461;DHT22;724;49.910;12.530;2023-03-12T04:42:49;-6.20;99.90
1461;DHT22;724;49.910;12.530;2023-03-12T04:45:18;-6.20;99.90
1461;DHT22;724;49.910;12.530;2023-03-12T04:47:44;-6.10;99.90
1461;DHT22;724;49.910;12.530;2023-03-12T04:50:12;-6.00;99.90
1461;DHT22;724;49.910;12.530;2023-03-12T04:52:39;-6.00;99.90
1461;DHT22;724;49.910;12.530;2023-03-12T04:55:07;-5.90;99.90
1461;DHT22;724;49.910;12.530;2023-03-12T04:57:34;-6.00;99.90
1461;DHT22;724;49.910;12.530;2023-03-12T05:00:00;-5.90;99.90
1461;DHT22;724;49.910;12.530;2023-03-12T05:02:31;-5.90;99.90
1461;DHT22;724;49.910;12.530;2023-03-12T05:04:57;-5.80;99.90
1461;DHT22;724;49.910;12.530;2023-03-12T05:07:24;-5.80;96.50
1461;DHT22;724;49.910;12.530;2023-03-12T05:09:53;-5.80;1.00
1461;DHT22;724;49.910;12.530;2023-03-12T05:12:20;-5.70;1.00
1461;DHT22;724;49.910;12.530;2023-03-12T05:14:47;-5.60;1.00
1461;DHT22;724;49.910;12.530;2023-03-12T05:17:14;-5.50;1.00
1461;DHT22;724;49.910;12.530;2023-03-12T05:19:42;-5.50;1.00
1461;DHT22;724;49.910;12.530;2023-03-12T05:22:08;-5.60;1.00
1461;DHT22;724;49.910;12.530;2023-03-12T05:24:35;-5.60;1.00
1461;DHT22;724;49.910;12.530;2023-03-12T05:27:02;-5.40;1.00
1461;DHT22;724;49.910;12.530;2023-03-12T05:29:29;-5.30;1.00
1461;DHT22;724;49.910;12.530;2023-03-12T05:32:00;-5.30;1.00
1461;DHT22;724;49.910;12.530;2023-03-12T05:34:26;-5.10;53.80
1461;DHT22;724;49.910;12.530;2023-03-12T05:36:56;-5.10;99.90
1461;DHT22;724;49.910;12.530;2023-03-12T05:39:24;-5.00;94.60
1461;DHT22;724;49.910;12.530;2023-03-12T05:41:51;-5.00;99.90
1461;DHT22;724;49.910;12.530;2023-03-12T05:44:21;-5.00;30.00
1461;DHT22;724;49.910;12.530;2023-03-12T05:46:48;-5.10;1.00
1461;DHT22;724;49.910;12.530;2023-03-12T05:49:15;-5.10;1.00
1461;DHT22;724;49.910;12.530;2023-03-12T05:51:42;-5.20;1.00
1461;DHT22;724;49.910;12.530;2023-03-12T05:54:10;-5.20;1.00
1461;DHT22;724;49.910;12.530;2023-03-12T05:56:37;-5.10;1.00
1461;DHT22;724;49.910;12.530;2023-03-12T05:59:04;-5.00;1.00
1461;DHT22;724;49.910;12.530;2023-03-12T06:01:31;-4.90;1.00
1461;DHT22;724;49.910;12.530;2023-03-12T06:03:58;-4.90;1.00
1461;DHT22;724;49.910;12.530;2023-03-12T06:06:25;-4.80;1.00
1461;DHT22;724;49.910;12.530;2023-03-12T06:08:52;-4.90;1.00
1461;DHT22;724;49.910;12.530;2023-03-12T06:11:20;-4.80;1.00
1461;DHT22;724;49.910;12.530;2023-03-12T06:13:46;-4.70;1.00
1461;DHT22;724;49.910;12.530;2023-03-12T06:16:15;-4.70;99.90
1461;DHT22;724;49.910;12.530;2023-03-12T06:18:43;-4.60;99.90
1461;DHT22;724;49.910;12.530;2023-03-12T06:21:12;-4.70;99.90
1461;DHT22;724;49.910;12.530;2023-03-12T06:23:39;-4.60;99.90
1461;DHT22;724;49.910;12.530;2023-03-12T06:26:07;-4.50;99.90
1461;DHT22;724;49.910;12.530;2023-03-12T06:28:35;-4.30;99.90
1461;DHT22;724;49.910;12.530;2023-03-12T06:31:02;-4.30;99.90
1461;DHT22;724;49.910;12.530;2023-03-12T06:33:30;-4.20;99.90
1461;DHT22;724;49.910;12.530;2023-03-12T06:35:58;-4.00;56.70
1461;DHT22;724;49.910;12.530;2023-03-12T06:38:25;-3.60;1.00
1461;DHT22;724;49.910;12.530;2023-03-12T06:40:53;-3.00;1.00
1461;DHT22;724;49.910;12.530;2023-03-12T06:43:21;-2.30;1.00
1461;DHT22;724;49.910;12.530;2023-03-12T06:45:49;-0.70;99.90
1461;DHT22;724;49.910;12.530;2023-03-12T06:48:16;-0.70;1.00
1461;DHT22;724;49.910;12.530;2023-03-12T06:50:43;-1.80;1.00
1461;DHT22;724;49.910;12.530;2023-03-12T06:53:09;-2.20;1.00
1461;DHT22;724;49.910;12.530;2023-03-12T06:55:36;-2.40;1.00
1461;DHT22;724;49.910;12.530;2023-03-12T06:58:03;-2.60;1.00
1461;DHT22;724;49.910;12.530;2023-03-12T07:00:30;-2.40;1.00
1461;DHT22;724;49.910;12.530;2023-03-12T07:02:58;-2.40;1.00
1461;DHT22;724;49.910;12.530;2023-03-12T07:05:26;-1.30;1.00
1461;DHT22;724;49.910;12.530;2023-03-12T07:07:52;0.50;1.00
1461;DHT22;724;49.910;12.530;2023-03-12T07:10:19;2.90;1.00
1461;DHT22;724;49.910;12.530;2023-03-12T07:12:46;4.20;99.90
1461;DHT22;724;49.910;12.530;2023-03-12T07:15:13;5.60;99.90
1461;DHT22;724;49.910;12.530;2023-03-12T07:17:40;3.50;1.00
1461;DHT22;724;49.910;12.530;2023-03-12T07:20:10;2.20;1.00
1461;DHT22;724;49.910;12.530;2023-03-12T07:22:37;2.10;1.00
1461;DHT22;724;49.910;12.530;2023-03-12T07:25:04;2.10;1.00
1461;DHT22;724;49.910;12.530;2023-03-12T07:27:31;1.80;1.00
1461;DHT22;724;49.910;12.530;2023-03-12T07:29:58;1.80;1.00
1461;DHT22;724;49.910;12.530;2023-03-12T07:32:24;1.30;1.00
1461;DHT22;724;49.910;12.530;2023-03-12T07:34:51;1.10;1.00
1461;DHT22;724;49.910;12.530;2023-03-12T07:37:20;0.90;1.00
1461;DHT22;724;49.910;12.530;2023-03-12T07:39:46;0.80;1.00
1461;DHT22;724;49.910;12.530;2023-03-12T07:42:16;1.50;1.00
1461;DHT22;724;49.910;12.530;2023-03-12T07:44:43;1.40;1.00
1461;DHT22;724;49.910;12.530;2023-03-12T07:47:10;1.30;1.00
1461;DHT22;724;49.910;12.530;2023-03-12T07:49:37;1.50;1.00
1461;DHT22;724;49.910;12.530;2023-03-12T07:52:06;1.30;1.00
1461;DHT22;724;49.910;12.530;2023-03-12T07:54:37;1.10;1.00
1461;DHT22;724;49.910;12.530;2023-03-12T07:57:04;1.10;1.00
1461;DHT22;724;49.910;12.530;2023-03-12T07:59:31;1.10;1.00
1461;DHT22;724;49.910;12.530;2023-03-12T08:01:58;1.20;1.00
1461;DHT22;724;49.910;12.530;2023-03-12T08:04:24;1.40;1.00
1461;DHT22;724;49.910;12.530;2023-03-12T08:06:51;1.50;1.00
1461;DHT22;724;49.910;12.530;2023-03-12T08:09:18;1.30;1.00
1461;DHT22;724;49.910;12.530;2023-03-12T08:11:46;1.10;1.00
1461;DHT22;724;49.910;12.530;2023-03-12T08:14:12;1.00;1.00
1461;DHT22;724;49.910;12.530;2023-03-12T08:16:39;1.20;1.00
1461;DHT22;724;49.910;12.530;2023-03-12T08:19:06;1.30;1.00
1461;DHT22;724;49.910;12.530;2023-03-12T08:21:34;1.40;1.00
1461;DHT22;724;49.910;12.530;2023-03-12T08:24:01;1.50;1.00
1461;DHT22;724;49.910;12.530;2023-03-12T08:26:28;1.50;1.00
1461;DHT22;724;49.910;12.530;2023-03-12T08:28:57;1.90;1.00
1461;DHT22;724;49.910;12.530;2023-03-12T08:31:25;2.20;1.00
1461;DHT22;724;49.910;12.530;2023-03-12T08:33:51;2.60;1.00
1461;DHT22;724;49.910;12.530;2023-03-12T08:36:18;2.70;1.00
1461;DHT22;724;49.910;12.530;2023-03-12T08:38:45;1.90;1.00
1461;DHT22;724;49.910;12.530;2023-03-12T08:41:12;2.00;1.00
1461;DHT22;724;49.910;12.530;2023-03-12T08:43:39;2.00;1.00
1461;DHT22;724;49.910;12.530;2023-03-12T08:46:07;1.60;1.00
1461;DHT22;724;49.910;12.530;2023-03-12T08:48:34;1.90;1.00
1461;DHT22;724;49.910;12.530;2023-03-12T08:51:03;1.60;1.00
1461;DHT22;724;49.910;12.530;2023-03-12T08:53:32;1.50;1.00
1461;DHT22;724;49.910;12.530;2023-03-12T08:56:01;1.90;1.00
1461;DHT22;724;49.910;12.530;2023-03-12T08:58:28;1.70;1.00
1461;DHT22;724;49.910;12.530;2023-03-12T09:00:55;2.20;1.00
1461;DHT22;724;49.910;12.530;2023-03-12T09:03:25;3.70;1.00
1461;DHT22;724;49.910;12.530;2023-03-12T09:06:02;3.60;1.00
1461;DHT22;724;49.910;12.530;2023-03-12T09:08:29;3.80;1.00
1461;DHT22;724;49.910;12.530;2023-03-12T09:10:58;3.10;1.00
1461;DHT22;724;49.910;12.530;2023-03-12T09:13:25;2.90;1.00
1461;DHT22;724;49.910;12.530;2023-03-12T09:15:52;3.10;1.00
1461;DHT22;724;49.910;12.530;2023-03-12T09:18:25;2.70;1.00
1461;DHT22;724;49.910;12.530;2023-03-12T09:20:52;2.90;1.00
1461;DHT22;724;49.910;12.530;2023-03-12T09:23:19;3.10;1.00
1461;DHT22;724;49.910;12.530;2023-03-12T09:25:46;3.80;1.00
1461;DHT22;724;49.910;12.530;2023-03-12T09:28:13;3.80;1.00
1461;DHT22;724;49.910;12.530;2023-03-12T09:30:40;2.80;1.00
1461;DHT22;724;49.910;12.530;2023-03-12T09:33:07;4.10;1.00
1461;DHT22;724;49.910;12.530;2023-03-12T09:35:35;4.10;1.00
1461;DHT22;724;49.910;12.530;2023-03-12T09:38:02;3.90;1.00
1461;DHT22;724;49.910;12.530;2023-03-12T09:40:31;4.50;1.00
1461;DHT22;724;49.910;12.530;2023-03-12T09:43:00;4.70;1.00
1461;DHT22;724;49.910;12.530;2023-03-12T09:45:31;4.70;1.00
1461;DHT22;724;49.910;12.530;2023-03-12T09:48:01;4.50;1.00
1461;DHT22;724;49.910;12.530;2023-03-12T09:50:30;5.20;1.00
1461;DHT22;724;49.910;12.530;2023-03-12T09:53:01;5.20;99.90
1461;DHT22;724;49.910;12.530;2023-03-12T09:55:34;3.70;99.90
1461;DHT22;724;49.910;12.530;2023-03-12T09:58:01;4.10;99.90
1461;DHT22;724;49.910;12.530;2023-03-12T10:00:32;3.50;99.90
1461;DHT22;724;49.910;12.530;2023-03-12T10:03:14;3.80;99.90
1461;DHT22;724;49.910;12.530;2023-03-12T10:05:45;3.30;99.90
1461;DHT22;724;49.910;12.530;2023-03-12T10:08:21;4.20;99.90
1461;DHT22;724;49.910;12.530;2023-03-12T10:10:52;5.60;99.90
1461;DHT22;724;49.910;12.530;2023-03-12T10:13:52;5.80;99.90
1461;DHT22;724;49.910;12.530;2023-03-12T10:16:32;5.00;99.90
1461;DHT22;724;49.910;12.530;2023-03-12T10:19:17;5.60;99.90
1461;DHT22;724;49.910;12.530;2023-03-12T10:21:51;5.80;99.90
1461;DHT22;724;49.910;12.530;2023-03-12T10:24:34;6.00;99.90
1461;DHT22;724;49.910;12.530;2023-03-12T10:27:08;5.90;99.90
1461;DHT22;724;49.910;12.530;2023-03-12T10:29:39;5.60;99.90
1461;DHT22;724;49.910;12.530;2023-03-12T10:32:12;4.90;99.90
1461;DHT22;724;49.910;12.530;2023-03-12T10:34:43;5.50;99.90
1461;DHT22;724;49.910;12.530;2023-03-12T10:37:15;6.40;99.90
1461;DHT22;724;49.910;12.530;2023-03-12T10:39:48;6.10;99.90
1461;DHT22;724;49.910;12.530;2023-03-12T10:42:17;5.40;99.90
1461;DHT22;724;49.910;12.530;2023-03-12T10:44:45;4.60;99.90
1461;DHT22;724;49.910;12.530;2023-03-12T10:47:27;4.40;99.90
1461;DHT22;724;49.910;12.530;2023-03-12T10:49:53;4.10;99.90
1461;DHT22;724;49.910;12.530;2023-03-12T10:52:22;4.00;99.90
1461;DHT22;724;49.910;12.530;2023-03-12T10:54:51;4.00;99.90
1461;DHT22;724;49.910;12.530;2023-03-12T10:57:18;4.30;99.90
1461;DHT22;724;49.910;12.530;2023-03-12T10:59:47;4.20;99.90
1461;DHT22;724;49.910;12.530;2023-03-12T11:02:29;4.10;99.90
1461;DHT22;724;49.910;12.530;2023-03-12T11:04:58;3.80;99.90
1461;DHT22;724;49.910;12.530;2023-03-12T11:07:27;3.80;99.90
1461;DHT22;724;49.910;12.530;2023-03-12T11:10:18;3.90;99.90
1461;DHT22;724;49.910;12.530;2023-03-12T11:12:55;4.50;99.90
1461;DHT22;724;49.910;12.530;2023-03-12T11:15:25;4.60;99.90
1461;DHT22;724;49.910;12.530;2023-03-12T11:18:18;5.10;99.90
1461;DHT22;724;49.910;12.530;2023-03-12T11:20:46;5.50;99.90
1461;DHT22;724;49.910;12.530;2023-03-12T11:23:16;4.10;99.90
1461;DHT22;724;49.910;12.530;2023-03-12T11:25:51;4.90;99.90
1461;DHT22;724;49.910;12.530;2023-03-12T11:28:22;5.00;99.90
1461;DHT22;724;49.910;12.530;2023-03-12T11:30:51;5.30;99.90
1461;DHT22;724;49.910;12.530;2023-03-12T11:33:19;6.30;99.90
1461;DHT22;724;49.910;12.530;2023-03-12T11:35:52;5.40;99.90
1461;DHT22;724;49.910;12.530;2023-03-12T11:38:27;4.90;99.90
1461;DHT22;724;49.910;12.530;2023-03-12T11:41:07;4.70;99.90
1461;DHT22;724;49.910;12.530;2023-03-12T11:43:53;4.40;99.90
1461;DHT22;724;49.910;12.530;2023-03-12T11:46:31;4.10;99.90
1461;DHT22;724;49.910;12.530;2023-03-12T11:49:13;3.80;99.90
1461;DHT22;724;49.910;12.530;2023-03-12T11:51:51;3.80;99.90
1461;DHT22;724;49.910;12.530;2023-03-12T11:57:29;3.50;99.90
1461;DHT22;724;49.910;12.530;2023-03-12T12:00:11;3.50;99.90
1461;DHT22;724;49.910;12.530;2023-03-12T12:05:37;3.20;99.90
1461;DHT22;724;49.910;12.530;2023-03-12T12:08:22;3.20;99.90
1461;DHT22;724;49.910;12.530;2023-03-12T12:11:02;3.40;99.90
1461;DHT22;724;49.910;12.530;2023-03-12T12:13:38;3.40;99.90
1461;DHT22;724;49.910;12.530;2023-03-12T12:16:22;3.30;99.90
1461;DHT22;724;49.910;12.530;2023-03-12T12:19:01;3.30;99.90
1461;DHT22;724;49.910;12.530;2023-03-12T12:21:44;3.60;99.90
1461;DHT22;724;49.910;12.530;2023-03-12T12:24:25;3.40;99.90
1461;DHT22;724;49.910;12.530;2023-03-12T12:27:03;3.70;99.90
1461;DHT22;724;49.910;12.530;2023-03-12T12:29:51;3.50;99.90
1461;DHT22;724;49.910;12.530;2023-03-12T12:32:31;3.40;99.90
1461;DHT22;724;49.910;12.530;2023-03-12T12:35:07;3.40;99.90
1461;DHT22;724;49.910;12.530;2023-03-12T12:37:44;3.30;99.90
1461;DHT22;724;49.910;12.530;2023-03-12T12:40:19;3.30;99.90
1461;DHT22;724;49.910;12.530;2023-03-12T12:43:20;3.20;99.90
1461;DHT22;724;49.910;12.530;2023-03-12T12:45:52;3.30;99.90
1461;DHT22;724;49.910;12.530;2023-03-12T12:48:27;3.40;99.90
1461;DHT22;724;49.910;12.530;2023-03-12T12:50:55;3.60;99.90
1461;DHT22;724;49.910;12.530;2023-03-12T12:53:26;3.60;99.90
1461;DHT22;724;49.910;12.530;2023-03-12T12:56:02;3.30;99.90
1461;DHT22;724;49.910;12.530;2023-03-12T12:58:50;3.40;99.90
1461;DHT22;724;49.910;12.530;2023-03-12T13:01:19;3.20;99.90
1461;DHT22;724;49.910;12.530;2023-03-12T13:03:47;3.10;99.90
1461;DHT22;724;49.910;12.530;2023-03-12T13:06:14;3.00;99.90
1461;DHT22;724;49.910;12.530;2023-03-12T13:09:12;2.70;99.90
1461;DHT22;724;49.910;12.530;2023-03-12T13:11:43;2.90;1.00
1461;DHT22;724;49.910;12.530;2023-03-12T13:14:18;2.80;1.00
1461;DHT22;724;49.910;12.530;2023-03-12T13:16:48;2.60;1.00
1461;DHT22;724;49.910;12.530;2023-03-12T13:19:38;2.30;1.00
1461;DHT22;724;49.910;12.530;2023-03-12T13:22:11;2.50;1.00
1461;DHT22;724;49.910;12.530;2023-03-12T13:24:45;2.50;1.00
1461;DHT22;724;49.910;12.530;2023-03-12T13:27:19;2.70;1.00
1461;DHT22;724;49.910;12.530;2023-03-12T13:29:48;2.60;1.00
1461;DHT22;724;49.910;12.530;2023-03-12T13:33:05;2.70;1.00
1461;DHT22;724;49.910;12.530;2023-03-12T13:35:37;2.80;1.00
1461;DHT22;724;49.910;12.530;2023-03-12T13:38:06;2.80;1.00
1461;DHT22;724;49.910;12.530;2023-03-12T13:40:38;2.80;1.00
1461;DHT22;724;49.910;12.530;2023-03-12T13:43:11;2.30;1.00
1461;DHT22;724;49.910;12.530;2023-03-12T13:45:54;2.30;1.00
1461;DHT22;724;49.910;12.530;2023-03-12T13:48:25;2.30;1.00
1461;DHT22;724;49.910;12.530;2023-03-12T13:50:54;2.40;1.00
1461;DHT22;724;49.910;12.530;2023-03-12T13:53:24;2.30;1.00
1461;DHT22;724;49.910;12.530;2023-03-12T13:56:00;2.40;1.00
1461;DHT22;724;49.910;12.530;2023-03-12T13:58:28;2.50;1.00
1461;DHT22;724;49.910;12.530;2023-03-12T14:01:01;2.40;1.00
1461;DHT22;724;49.910;12.530;2023-03-12T14:03:35;2.20;1.00
1461;DHT22;724;49.910;12.530;2023-03-12T14:06:17;2.30;1.00
1461;DHT22;724;49.910;12.530;2023-03-12T14:09:05;2.30;1.00
1461;DHT22;724;49.910;12.530;2023-03-12T14:11:46;2.40;29.30
1461;DHT22;724;49.910;12.530;2023-03-12T14:14:29;2.30;99.90
1461;DHT22;724;49.910;12.530;2023-03-12T14:17:02;2.40;99.90
1461;DHT22;724;49.910;12.530;2023-03-12T14:19:36;2.40;99.90
1461;DHT22;724;49.910;12.530;2023-03-12T14:22:06;2.20;1.00
1461;DHT22;724;49.910;12.530;2023-03-12T14:24:40;2.30;1.00
1461;DHT22;724;49.910;12.530;2023-03-12T14:27:17;2.20;99.90
1461;DHT22;724;49.910;12.530;2023-03-12T14:29:51;2.20;99.90
1461;DHT22;724;49.910;12.530;2023-03-12T14:32:23;2.30;1.00
1461;DHT22;724;49.910;12.530;2023-03-12T14:35:18;2.30;1.00
1461;DHT22;724;49.910;12.530;2023-03-12T14:37:56;2.30;43.10
1461;DHT22;724;49.910;12.530;2023-03-12T14:40:35;2.40;99.90
1461;DHT22;724;49.910;12.530;2023-03-12T14:43:29;2.40;99.90
1461;DHT22;724;49.910;12.530;2023-03-12T14:46:01;2.40;1.00
1461;DHT22;724;49.910;12.530;2023-03-12T14:48:31;2.50;1.00
1461;DHT22;724;49.910;12.530;2023-03-12T14:51:15;2.40;1.00
1461;DHT22;724;49.910;12.530;2023-03-12T14:53:47;2.40;1.00
1461;DHT22;724;49.910;12.530;2023-03-12T14:56:23;2.10;1.00
1461;DHT22;724;49.910;12.530;2023-03-12T14:58:53;2.20;99.90
1461;DHT22;724;49.910;12.530;2023-03-12T15:01:23;2.10;99.90
1461;DHT22;724;49.910;12.530;2023-03-12T15:03:56;2.10;1.00
1461;DHT22;724;49.910;12.530;2023-03-12T15:06:30;2.00;1.00
1461;DHT22;724;49.910;12.530;2023-03-12T15:08:59;2.00;80.50
1461;DHT22;724;49.910;12.530;2023-03-12T15:11:29;2.00;99.90
1461;DHT22;724;49.910;12.530;2023-03-12T15:14:02;2.00;99.90
1461;DHT22;724;49.910;12.530;2023-03-12T15:16:30;1.90;99.90
1461;DHT22;724;49.910;12.530;2023-03-12T15:18:57;1.80;1.00
1461;DHT22;724;49.910;12.530;2023-03-12T15:21:24;1.90;1.00
1461;DHT22;724;49.910;12.530;2023-03-12T15:23:52;1.90;1.00
1461;DHT22;724;49.910;12.530;2023-03-12T15:26:27;2.00;1.00
1461;DHT22;724;49.910;12.530;2023-03-12T15:28:56;2.00;1.00
1461;DHT22;724;49.910;12.530;2023-03-12T15:31:23;2.10;8.50
1461;DHT22;724;49.910;12.530;2023-03-12T15:33:59;2.10;19.40
1461;DHT22;724;49.910;12.530;2023-03-12T15:36:28;2.10;87.40
1461;DHT22;724;49.910;12.530;2023-03-12T15:38:59;2.20;99.90
1461;DHT22;724;49.910;12.530;2023-03-12T15:41:30;2.20;99.90
1461;DHT22;724;49.910;12.530;2023-03-12T15:43:59;2.30;99.90
1461;DHT22;724;49.910;12.530;2023-03-12T15:46:27;2.20;99.90
1461;DHT22;724;49.910;12.530;2023-03-12T15:48:55;2.20;99.90
1461;DHT22;724;49.910;12.530;2023-03-12T15:51:29;2.20;99.90
1461;DHT22;724;49.910;12.530;2023-03-12T15:54:05;2.20;99.90
1461;DHT22;724;49.910;12.530;2023-03-12T15:56:45;2.20;99.90
1461;DHT22;724;49.910;12.530;2023-03-12T15:59:22;2.20;99.90
1461;DHT22;724;49.910;12.530;2023-03-12T16:01:50;2.20;99.90
1461;DHT22;724;49.910;12.530;2023-03-12T16:04:18;2.30;99.90
1461;DHT22;724;49.910;12.530;2023-03-12T16:06:46;2.30;99.90
1461;DHT22;724;49.910;12.530;2023-03-12T16:09:16;2.30;99.90
1461;DHT22;724;49.910;12.530;2023-03-12T16:11:45;2.30;99.90
1461;DHT22;724;49.910;12.530;2023-03-12T16:14:16;2.30;99.90
1461;DHT22;724;49.910;12.530;2023-03-12T16:16:44;2.30;99.90
1461;DHT22;724;49.910;12.530;2023-03-12T16:19:11;2.30;99.90
1461;DHT22;724;49.910;12.530;2023-03-12T16:21:39;2.30;99.90
1461;DHT22;724;49.910;12.530;2023-03-12T16:24:06;2.30;99.90
1461;DHT22;724;49.910;12.530;2023-03-12T16:26:37;2.30;99.90
1461;DHT22;724;49.910;12.530;2023-03-12T16:29:05;2.40;99.90
1461;DHT22;724;49.910;12.530;2023-03-12T16:31:32;2.40;99.90
1461;DHT22;724;49.910;12.530;2023-03-12T16:33:59;2.40;99.90
1461;DHT22;724;49.910;12.530;2023-03-12T16:36:26;2.40;99.90
1461;DHT22;724;49.910;12.530;2023-03-12T16:38:53;2.40;99.90
1461;DHT22;724;49.910;12.530;2023-03-12T16:41:19;2.50;99.90
1461;DHT22;724;49.910;12.530;2023-03-12T16:43:49;2.50;99.90
1461;DHT22;724;49.910;12.530;2023-03-12T16:46:20;2.50;99.90